createdAt,value
2022-10-28T00:03:54.571Z,36.60
2022-10-28T00:08:58.423Z,37.93
2022-10-28T00:14:05.100Z,35.30
2022-10-28T00:19:12.350Z,42.20
2022-10-28T00:24:16.193Z,53.30
2022-10-28T00:29:20.771Z,39.40
2022-10-28T00:34:24.121Z,36.93
2022-10-28T00:39:27.937Z,36.53
2022-10-28T00:44:44.210Z,53.07
2022-10-28T00:49:50.709Z,45.80
2022-10-28T00:54:55.832Z,52.90
2022-10-28T01:00:03.499Z,62.27
2022-10-28T01:05:07.794Z,48.03
2022-10-28T01:10:12.993Z,44.33
2022-10-28T01:15:40.354Z,42.60
2022-10-28T01:20:58.692Z,38.33
2022-10-28T01:26:29.893Z,38.80
2022-10-28T01:31:46.133Z,41.13
2022-10-28T01:37:13.792Z,42.10
2022-10-28T01:42:28.661Z,47.33
2022-10-28T01:47:35.022Z,47.00
2022-10-28T01:52:40.752Z,51.50
2022-10-28T01:57:44.452Z,59.23
2022-10-28T02:02:51.192Z,58.77
2022-10-28T02:08:02.094Z,49.97
2022-10-28T02:13:13.018Z,56.30
2022-10-28T02:18:39.969Z,63.50
2022-10-28T02:23:53.552Z,52.00
2022-10-28T02:29:09.312Z,65.70
2022-10-28T02:34:22.273Z,63.73
2022-10-28T02:39:38.842Z,59.83
2022-10-28T02:44:49.322Z,57.80
2022-10-28T02:49:57.951Z,58.50
2022-10-28T02:55:06.500Z,58.57
2022-10-28T03:00:15.717Z,53.13
2022-10-28T03:05:19.004Z,56.33
2022-10-28T03:10:22.342Z,57.03
2022-10-28T03:15:25.963Z,56.57
2022-10-28T03:20:29.763Z,60.23
2022-10-28T03:25:33.358Z,61.67
2022-10-28T03:30:36.465Z,59.60
2022-10-28T03:35:39.712Z,57.47
2022-10-28T03:40:43.067Z,62.93
2022-10-28T03:45:46.242Z,63.70
2022-10-28T03:51:09.902Z,68.17
2022-10-28T03:56:13.513Z,79.77
2022-10-28T04:01:17.354Z,65.57
2022-10-28T04:06:20.896Z,59.13
2022-10-28T04:11:24.231Z,68.03
2022-10-28T04:16:27.257Z,71.80
2022-10-28T04:21:30.576Z,64.30
2022-10-28T04:26:33.836Z,60.57
2022-10-28T04:31:37.286Z,50.50
2022-10-28T04:36:40.967Z,59.37
2022-10-28T04:41:44.459Z,57.03
2022-10-28T04:46:47.734Z,61.97
2022-10-28T04:51:52.059Z,61.00
2022-10-28T04:56:55.787Z,62.40
2022-10-28T05:01:59.644Z,62.07
2022-10-28T05:07:03.207Z,61.00
2022-10-28T05:12:07.188Z,72.07
2022-10-28T05:17:13.586Z,63.90
2022-10-28T05:22:19.186Z,66.97
2022-10-28T05:27:22.636Z,66.87
2022-10-28T05:32:25.747Z,70.77
2022-10-28T05:37:28.696Z,66.23
2022-10-28T05:42:32.054Z,65.13
2022-10-28T05:47:37.777Z,61.73
2022-10-28T05:52:54.526Z,67.13
2022-10-28T05:57:58.240Z,70.50
2022-10-28T06:08:39.194Z,83.57
2022-10-28T06:13:42.025Z,74.20
2022-10-28T06:18:45.671Z,71.37
2022-10-28T06:23:49.171Z,69.43
2022-10-28T06:28:52.515Z,80.87
2022-10-28T06:33:56.660Z,85.03
2022-10-28T06:39:00.037Z,84.50
2022-10-28T06:44:08.148Z,94.23
2022-10-28T06:49:13.248Z,80.57
2022-10-28T06:54:16.525Z,85.37
2022-10-28T06:59:19.593Z,88.00
2022-10-28T07:04:23.027Z,91.00
2022-10-28T07:09:26.680Z,88.27
2022-10-28T07:14:30.225Z,99.10
2022-10-28T07:19:33.631Z,119.37
2022-10-28T07:24:36.952Z,107.67
2022-10-28T07:29:40.256Z,100.33
2022-10-28T07:34:43.637Z,98.70
2022-10-28T07:39:46.931Z,96.93
2022-10-28T07:44:50.341Z,93.17
2022-10-28T07:49:54.713Z,94.43
2022-10-28T07:54:58.245Z,100.37
2022-10-28T08:00:01.785Z,100.60
2022-10-28T08:05:05.662Z,93.30
2022-10-28T08:10:09.489Z,101.57
2022-10-28T08:15:15.570Z,101.00
2022-10-28T08:20:18.847Z,98.77
2022-10-28T08:25:22.475Z,104.47
2022-10-28T08:30:40.398Z,94.17
2022-10-28T08:35:53.572Z,97.30
2022-10-28T08:42:03.175Z,86.50
2022-10-28T08:47:32.430Z,93.97
2022-10-28T08:52:45.064Z,94.80
2022-10-28T08:57:57.241Z,86.07
2022-10-28T09:03:12.159Z,84.60
2022-10-28T09:08:26.559Z,79.60
2022-10-28T09:13:52.376Z,82.07
2022-10-28T09:18:59.728Z,69.00
2022-10-28T09:24:19.465Z,75.17
2022-10-28T09:29:44.400Z,70.80
2022-10-28T09:34:58.443Z,81.97
2022-10-28T09:40:24.053Z,80.07
2022-10-28T09:45:31.638Z,79.40
2022-10-28T09:50:34.834Z,76.97
2022-10-28T09:55:38.076Z,63.20
2022-10-28T10:00:41.422Z,55.93
2022-10-28T10:05:49.883Z,46.30
2022-10-28T10:11:14.321Z,47.28
2022-10-28T10:16:56.610Z,45.40
2022-10-28T10:21:59.671Z,34.55
2022-10-28T10:27:12.211Z,32.25
2022-10-28T10:32:27.470Z,34.08
2022-10-28T10:37:34.480Z,33.55
2022-10-28T10:42:46.525Z,31.13
2022-10-28T10:48:15.556Z,35.85
2022-10-28T10:53:29.093Z,30.98
2022-10-28T10:58:36.848Z,24.80
2022-10-28T11:03:59.915Z,25.20
2022-10-28T11:09:08.099Z,27.02
2022-10-28T11:14:13.090Z,25.35
2022-10-28T11:19:21.202Z,29.98
2022-10-28T11:24:47.866Z,19.92
2022-10-28T11:29:51.554Z,21.88
2022-10-28T11:35:26.755Z,26.47
2022-10-28T11:41:11.913Z,27.27
2022-10-28T11:46:45.272Z,28.95
2022-10-28T11:52:04.003Z,33.50
2022-10-28T11:57:17.662Z,25.83
2022-10-28T12:02:42.578Z,31.93
2022-10-28T12:08:07.714Z,29.27
2022-10-28T12:13:29.742Z,36.22
2022-10-28T12:18:58.833Z,33.13
2022-10-28T12:24:04.125Z,31.97
2022-10-28T12:29:16.900Z,25.87
2022-10-28T12:34:31.997Z,34.95
2022-10-28T12:39:50.026Z,34.05
2022-10-28T12:44:58.128Z,28.08
2022-10-28T12:50:09.308Z,29.00
2022-10-28T13:00:26.341Z,31.00
2022-10-28T13:05:44.013Z,27.83
2022-10-28T13:11:11.522Z,32.65
2022-10-28T13:16:52.011Z,31.15
2022-10-28T13:22:21.959Z,27.67
2022-10-28T13:27:26.483Z,30.55
2022-10-28T13:32:43.430Z,33.42
2022-10-28T13:37:49.682Z,32.80
2022-10-28T13:42:53.470Z,27.45
2022-10-28T13:48:29.032Z,31.88
2022-10-28T13:53:33.257Z,31.55
2022-10-28T13:58:39.528Z,31.50
2022-10-28T14:03:52.714Z,27.45
2022-10-28T14:08:57.240Z,28.75
2022-10-28T14:14:05.000Z,26.85
2022-10-28T14:19:10.863Z,25.55
2022-10-28T14:24:32.381Z,24.77
2022-10-28T14:29:54.590Z,23.98
2022-10-28T14:35:02.280Z,24.63
2022-10-28T14:40:34.899Z,20.23
2022-10-28T14:46:06.579Z,21.33
2022-10-28T14:51:15.781Z,22.42
2022-10-28T14:56:31.479Z,21.67
2022-10-28T15:01:57.731Z,21.02
2022-10-28T15:07:02.378Z,20.88
2022-10-28T15:12:12.265Z,26.20
2022-10-28T15:17:22.186Z,25.02
2022-10-28T15:22:34.086Z,23.73
2022-10-28T15:27:41.709Z,33.28
2022-10-28T15:32:45.997Z,50.42
2022-10-28T15:37:49.667Z,33.33
2022-10-28T15:43:05.085Z,30.95
2022-10-28T15:48:15.195Z,31.03
2022-10-28T15:53:32.891Z,29.13
2022-10-28T15:58:40.466Z,27.67
2022-10-28T16:03:48.137Z,25.37
2022-10-28T16:09:10.236Z,25.35
2022-10-28T16:14:39.874Z,27.47
2022-10-28T16:19:58.373Z,31.97
2022-10-28T16:25:01.806Z,24.73
2022-10-28T16:30:05.955Z,27.47
2022-10-28T16:35:20.647Z,23.63
2022-10-28T16:45:50.066Z,25.70
2022-10-28T16:50:57.585Z,28.03
2022-10-28T16:56:01.333Z,23.93
2022-10-28T17:01:04.774Z,22.37
2022-10-28T17:06:09.354Z,23.67
2022-10-28T17:11:17.703Z,32.20
2022-10-28T17:16:21.343Z,22.63
2022-10-28T17:21:26.764Z,27.73
2022-10-28T17:26:31.476Z,32.57
2022-10-28T17:31:35.875Z,29.73
2022-10-28T17:36:39.796Z,40.80
2022-10-28T17:41:44.207Z,50.10
2022-10-28T17:46:51.983Z,58.97
2022-10-28T17:51:55.525Z,74.93
2022-10-28T17:56:59.149Z,50.70
2022-10-28T18:02:07.516Z,61.83
2022-10-28T18:07:11.486Z,64.03
2022-10-28T18:12:15.313Z,71.13
2022-10-28T18:17:19.125Z,64.17
2022-10-28T18:22:27.024Z,58.63
2022-10-28T18:27:44.836Z,51.30
2022-10-28T18:32:53.618Z,37.73
2022-10-28T18:38:06.606Z,43.53
2022-10-28T18:43:11.120Z,45.33
2022-10-28T18:48:16.587Z,40.93
2022-10-28T18:53:32.746Z,40.10
2022-10-28T18:58:40.778Z,41.47
2022-10-28T19:03:46.317Z,35.27
2022-10-28T19:09:02.284Z,41.07
2022-10-28T19:14:14.388Z,39.07
2022-10-28T19:19:24.426Z,37.57
2022-10-28T19:24:39.537Z,37.50
2022-10-28T19:29:44.307Z,36.77
2022-10-28T19:34:56.308Z,34.37
2022-10-28T19:40:00.874Z,31.07
2022-10-28T19:45:08.177Z,27.90
2022-10-28T19:50:11.775Z,30.40
2022-10-28T19:55:16.406Z,30.10
2022-10-28T20:00:20.507Z,31.83
2022-10-28T20:05:24.386Z,28.77
2022-10-28T20:10:28.632Z,33.07
2022-10-28T20:15:32.777Z,28.57
2022-10-28T20:20:38.256Z,26.77
2022-10-28T20:25:53.407Z,27.73
2022-10-28T20:31:02.947Z,26.30
2022-10-28T20:36:21.277Z,30.03
2022-10-28T20:41:26.152Z,25.57
2022-10-28T20:46:29.837Z,26.03
2022-10-28T20:51:34.443Z,27.07
2022-10-28T20:56:39.497Z,27.07
2022-10-28T21:01:43.192Z,22.07
2022-10-28T21:06:46.768Z,21.87
2022-10-28T21:11:50.342Z,26.43
2022-10-28T21:16:54.100Z,27.60
2022-10-28T21:21:57.910Z,28.97
2022-10-28T21:27:01.106Z,25.13
2022-10-28T21:32:04.736Z,24.53
2022-10-28T21:37:08.607Z,28.77
2022-10-28T21:42:11.896Z,28.63
2022-10-28T21:47:15.078Z,33.00
2022-10-28T21:52:18.802Z,36.90
2022-10-28T21:57:22.246Z,36.53
2022-10-28T22:02:25.943Z,35.07
2022-10-28T22:07:29.368Z,36.70
2022-10-28T22:12:32.615Z,39.17
2022-10-28T22:17:35.837Z,48.43
2022-10-28T22:22:39.136Z,45.23
2022-10-28T22:27:42.629Z,53.30
2022-10-28T22:32:45.599Z,41.23
2022-10-28T22:37:48.547Z,57.73
2022-10-28T22:42:51.823Z,64.77
2022-10-28T22:47:55.415Z,46.67
2022-10-28T22:52:58.997Z,41.27
2022-10-28T22:58:03.831Z,33.87
2022-10-28T23:03:07.536Z,36.67
2022-10-28T23:08:19.724Z,35.47
2022-10-28T23:13:41.739Z,35.27
2022-10-28T23:18:53.656Z,40.27
2022-10-28T23:23:59.861Z,43.83
2022-10-28T23:29:04.476Z,31.97
2022-10-28T23:34:08.116Z,32.03
2022-10-28T23:39:11.795Z,32.53
2022-10-28T23:44:16.316Z,33.97
2022-10-28T23:49:22.934Z,30.57
2022-10-28T23:54:26.547Z,35.27
2022-10-28T23:59:35.879Z,29.30
